Time;durP1;ratioP1;P1;durP2;ratioP2;P2;SDS_P1;SDS_P2;PMS_P1;PMS_P2;Temp;Humidity;BMP_temperature;BMP_pressure;BME280_temperature;BME280_humidity;BME280_pressure;Samples;Min_cycle;Max_cycle;Signal;HPM_P1;HPM_P2
2021/11/08 00:00:27;;;;;;;11.43;6.13;;;7.80;99.90;;;;;;5011426;28;20537;-66
2021/11/08 00:02:53;;;;;;;7.33;6.13;;;7.80;99.90;;;;;;5012002;28;20950;-65
2021/11/08 00:05:19;;;;;;;12.70;7.47;;;7.80;99.90;;;;;;5012115;28;20438;-65
2021/11/08 00:07:48;;;;;;;7.30;5.90;;;7.90;99.90;;;;;;5011657;28;20509;-65
2021/11/08 00:10:15;;;;;;;6.70;5.57;;;7.80;99.90;;;;;;5011673;28;20186;-66
2021/11/08 00:12:40;;;;;;;10.00;6.23;;;7.80;99.90;;;;;;5007652;28;20986;-66
2021/11/08 00:15:09;;;;;;;9.43;6.47;;;7.80;99.90;;;;;;4999539;28;20433;-66
2021/11/08 00:18:02;;;;;;;7.17;6.30;;;7.70;99.90;;;;;;5011139;28;20261;-65
2021/11/08 00:20:40;;;;;;;13.40;6.83;;;7.70;99.90;;;;;;5008635;28;20429;-65
2021/11/08 00:23:08;;;;;;;14.37;6.33;;;7.60;99.90;;;;;;5011816;28;20437;-65
2021/11/08 00:25:35;;;;;;;8.07;7.20;;;7.70;99.90;;;;;;5011915;28;20488;-66
2021/11/08 00:28:00;;;;;;;7.53;6.33;;;7.70;99.90;;;;;;5011158;28;20488;-65
2021/11/08 00:30:30;;;;;;;12.37;7.20;;;7.70;99.90;;;;;;5011420;28;20501;-65
2021/11/08 00:32:56;;;;;;;8.23;6.20;;;7.70;99.90;;;;;;5011967;28;20167;-65
2021/11/08 00:35:22;;;;;;;8.37;6.80;;;7.60;99.90;;;;;;5011697;28;20532;-65
2021/11/08 00:37:48;;;;;;;9.70;6.10;;;7.50;99.90;;;;;;5011016;28;20472;-65
2021/11/08 00:40:13;;;;;;;8.17;7.37;;;7.50;99.90;;;;;;5011763;28;20342;-65
2021/11/08 00:42:39;;;;;;;10.57;6.93;;;7.60;99.90;;;;;;5011761;28;20221;-64
2021/11/08 00:45:05;;;;;;;12.60;7.67;;;7.50;99.90;;;;;;5011568;28;20233;-65
2021/11/08 00:47:31;;;;;;;9.80;6.80;;;7.50;99.90;;;;;;5010965;28;20183;-66
2021/11/08 00:49:57;;;;;;;9.60;6.40;;;7.50;99.90;;;;;;5011845;28;20473;-66
2021/11/08 00:52:24;;;;;;;9.00;7.17;;;7.40;99.90;;;;;;5011635;28;20467;-66
2021/11/08 00:54:51;;;;;;;9.07;6.37;;;7.40;99.90;;;;;;5011393;28;20935;-66
2021/11/08 00:57:20;;;;;;;12.97;7.60;;;7.30;99.90;;;;;;5011304;28;20935;-65
2021/11/08 00:59:46;;;;;;;11.67;8.47;;;7.30;99.90;;;;;;5006270;28;20434;-65
2021/11/08 01:02:13;;;;;;;12.60;7.07;;;7.20;99.90;;;;;;5011407;28;20533;-65
2021/11/08 01:04:39;;;;;;;7.50;6.80;;;7.10;99.90;;;;;;5011410;28;20641;-66
2021/11/08 01:07:05;;;;;;;11.33;6.50;;;7.00;99.90;;;;;;5011554;28;20517;-66
2021/11/08 01:09:30;;;;;;;12.43;7.63;;;6.90;99.90;;;;;;5010828;28;20445;-65
2021/11/08 01:11:57;;;;;;;10.67;7.20;;;6.90;99.90;;;;;;5011141;28;20995;-65
2021/11/08 01:14:23;;;;;;;9.73;6.00;;;6.90;99.90;;;;;;5011391;28;20228;-66
2021/11/08 01:16:56;;;;;;;8.77;6.80;;;6.80;99.90;;;;;;5011322;28;20440;-66
2021/11/08 01:19:22;;;;;;;17.17;8.73;;;6.70;99.90;;;;;;5010870;28;20441;-66
2021/11/08 01:21:48;;;;;;;13.03;7.23;;;6.60;99.90;;;;;;4995656;28;20450;-65
2021/11/08 01:24:14;;;;;;;12.03;6.57;;;6.50;99.90;;;;;;5011197;28;20453;-65
2021/11/08 01:26:39;;;;;;;10.60;7.57;;;6.50;99.90;;;;;;5014058;28;20175;-65
2021/11/08 01:29:05;;;;;;;12.00;7.70;;;6.40;99.90;;;;;;5014582;28;20179;-64
2021/11/08 01:31:31;;;;;;;14.57;8.43;;;6.40;99.90;;;;;;5014342;28;20927;-65
2021/11/08 01:33:57;;;;;;;7.70;6.73;;;6.40;99.90;;;;;;5014887;28;20517;-65
2021/11/08 01:36:25;;;;;;;11.03;6.97;;;6.40;99.90;;;;;;5014897;28;20663;-65
2021/11/08 01:38:55;;;;;;;9.90;7.80;;;6.30;99.90;;;;;;5014198;28;20441;-66
2021/11/08 01:41:27;;;;;;;13.90;8.70;;;6.20;99.90;;;;;;5014449;28;20998;-65
2021/11/08 01:43:53;;;;;;;11.23;7.80;;;6.10;99.90;;;;;;5002441;28;20507;-65
2021/11/08 01:46:21;;;;;;;14.83;8.93;;;6.00;99.90;;;;;;5014617;28;20488;-65
2021/11/08 01:48:47;;;;;;;12.70;8.30;;;6.00;99.90;;;;;;5022438;28;20447;-66
2021/11/08 01:51:13;;;;;;;13.10;8.50;;;5.90;99.90;;;;;;5015733;28;20461;-65
2021/11/08 01:53:39;;;;;;;14.07;9.20;;;5.90;99.90;;;;;;5014402;28;20487;-65
2021/11/08 01:56:04;;;;;;;13.03;10.20;;;5.90;99.90;;;;;;5014604;28;20644;-65
2021/11/08 01:58:32;;;;;;;9.63;8.63;;;6.00;99.90;;;;;;5013764;28;20167;-65
2021/11/08 02:00:58;;;;;;;22.07;9.27;;;6.00;99.90;;;;;;5014057;28;20979;-65
2021/11/08 02:03:25;;;;;;;17.27;8.07;;;5.90;99.90;;;;;;5014067;28;20433;-66
2021/11/08 02:05:51;;;;;;;8.97;7.70;;;5.90;99.90;;;;;;5014241;28;20991;-66
2021/11/08 02:08:18;;;;;;;10.10;7.10;;;5.80;99.90;;;;;;5013867;28;20432;-66
2021/11/08 02:10:44;;;;;;;12.70;7.57;;;5.80;99.90;;;;;;5013745;28;20496;-64
2021/11/08 02:13:09;;;;;;;10.00;7.50;;;5.80;99.90;;;;;;5014193;28;20832;-65
2021/11/08 02:15:36;;;;;;;8.90;7.13;;;5.70;99.90;;;;;;5013845;28;20430;-66
2021/11/08 02:18:04;;;;;;;12.80;8.17;;;5.80;99.90;;;;;;5013517;28;20233;-65
2021/11/08 02:20:30;;;;;;;10.47;6.87;;;5.70;99.90;;;;;;5013630;28;20484;-65
2021/11/08 02:22:59;;;;;;;7.57;6.87;;;5.70;99.90;;;;;;5013904;28;20465;-65
2021/11/08 02:25:28;;;;;;;13.20;8.10;;;5.60;99.90;;;;;;5013711;28;20480;-66
2021/11/08 02:27:54;;;;;;;11.60;8.73;;;5.50;99.90;;;;;;5013390;28;20524;-65
2021/11/08 02:30:22;;;;;;;11.50;8.07;;;5.40;99.90;;;;;;5013501;28;20438;-65
2021/11/08 02:32:49;;;;;;;16.70;9.10;;;5.40;99.90;;;;;;5013611;28;20434;-65
2021/11/08 02:35:16;;;;;;;12.20;7.73;;;5.40;99.90;;;;;;5013647;28;20786;-65
2021/11/08 02:37:42;;;;;;;9.93;7.30;;;5.40;99.90;;;;;;5012693;28;20441;-65
2021/11/08 02:40:17;;;;;;;15.17;7.87;;;5.30;99.90;;;;;;5013420;28;21005;-65
2021/11/08 02:42:43;;;;;;;10.93;7.60;;;5.20;99.90;;;;;;5012724;28;20440;-65
2021/11/08 02:45:09;;;;;;;13.43;7.90;;;5.20;99.90;;;;;;5013201;28;20434;-65
2021/11/08 02:47:35;;;;;;;12.80;7.90;;;5.20;99.90;;;;;;5013208;28;20178;-66
2021/11/08 02:50:02;;;;;;;11.20;6.93;;;5.20;99.90;;;;;;5021910;28;20787;-65
2021/11/08 02:52:28;;;;;;;13.00;7.03;;;5.10;99.90;;;;;;5013008;28;20583;-65
2021/11/08 02:54:54;;;;;;;15.10;9.10;;;5.10;99.90;;;;;;5012957;28;20421;-66
2021/11/08 02:57:23;;;;;;;9.33;6.33;;;5.10;99.90;;;;;;5012486;28;20257;-64
2021/11/08 02:59:50;;;;;;;11.80;7.30;;;5.20;99.90;;;;;;5013275;28;20660;-65
2021/11/08 03:02:17;;;;;;;10.70;8.07;;;5.10;99.90;;;;;;5012855;28;20527;-65
2021/11/08 03:04:45;;;;;;;10.07;7.97;;;5.10;99.90;;;;;;5012745;28;20473;-65
2021/11/08 03:07:11;;;;;;;10.47;8.40;;;5.10;99.90;;;;;;5013081;28;20444;-64
2021/11/08 03:09:58;;;;;;;11.70;6.60;;;5.00;99.90;;;;;;5012594;28;20445;-65
2021/11/08 03:12:29;;;;;;;14.40;7.37;;;5.00;99.90;;;;;;5011651;28;20529;-65
2021/11/08 03:15:09;;;;;;;7.40;6.27;;;5.00;99.90;;;;;;5013429;28;20461;-65
2021/11/08 03:17:47;;;;;;;10.90;6.10;;;5.00;99.90;;;;;;5017717;28;20520;-65
2021/11/08 03:20:17;;;;;;;14.37;6.30;;;5.00;99.90;;;;;;5012820;28;20438;-66
2021/11/08 03:22:53;;;;;;;9.63;7.47;;;4.90;99.90;;;;;;5013412;28;20450;-64
2021/11/08 03:25:34;;;;;;;13.00;7.10;;;4.80;99.90;;;;;;5001034;28;20433;-65
2021/11/08 03:28:01;;;;;;;12.43;7.67;;;4.80;99.90;;;;;;5015072;28;20434;-64
2021/11/08 03:30:38;;;;;;;9.67;6.57;;;4.80;99.90;;;;;;5015878;28;20433;-65
2021/11/08 03:33:05;;;;;;;9.60;7.30;;;4.70;99.90;;;;;;5012065;28;20438;-65
2021/11/08 03:35:32;;;;;;;9.37;5.80;;;4.60;99.90;;;;;;5017114;28;20441;-65
2021/11/08 03:37:59;;;;;;;9.00;7.37;;;4.60;99.90;;;;;;5010323;28;20794;-65
2021/11/08 03:40:35;;;;;;;13.80;7.23;;;4.60;99.90;;;;;;5017437;28;20490;-65
2021/11/08 03:43:05;;;;;;;17.57;8.03;;;4.50;99.90;;;;;;5013563;28;20480;-65
2021/11/08 03:45:31;;;;;;;10.27;8.23;;;4.50;99.90;;;;;;5022274;28;20444;-65
2021/11/08 03:47:58;;;;;;;8.90;8.00;;;4.40;99.90;;;;;;5013556;28;20480;-65
2021/11/08 03:50:24;;;;;;;18.83;8.27;;;4.40;99.90;;;;;;5014465;28;20508;-65
2021/11/08 03:52:50;;;;;;;13.90;7.80;;;4.40;99.90;;;;;;5012586;28;20433;-65
2021/11/08 03:55:17;;;;;;;9.73;8.23;;;4.50;99.90;;;;;;5027712;28;20421;-64
2021/11/08 03:57:43;;;;;;;10.93;8.20;;;4.50;99.90;;;;;;5016690;28;20447;-65
2021/11/08 04:00:12;;;;;;;14.33;7.10;;;4.50;99.90;;;;;;4994973;28;20427;-65
2021/11/08 04:02:38;;;;;;;11.47;6.97;;;4.50;99.90;;;;;;4997397;28;20442;-66
2021/11/08 04:05:06;;;;;;;12.70;7.20;;;4.50;99.90;;;;;;5012466;28;20504;-65
2021/11/08 04:07:32;;;;;;;8.60;6.63;;;4.50;99.90;;;;;;5012230;28;20440;-65
2021/11/08 04:09:59;;;;;;;13.40;8.93;;;4.50;99.90;;;;;;5012395;28;20422;-65
2021/11/08 04:12:26;;;;;;;13.33;8.53;;;4.40;99.90;;;;;;5012199;28;20464;-65
2021/11/08 04:14:52;;;;;;;9.03;7.03;;;4.30;99.90;;;;;;5012372;28;20561;-65
2021/11/08 04:17:20;;;;;;;7.63;6.83;;;4.40;99.90;;;;;;5011760;28;20927;-65
2021/11/08 04:19:46;;;;;;;14.53;7.57;;;4.30;99.90;;;;;;5010092;28;20797;-66
2021/11/08 04:22:11;;;;;;;8.83;7.30;;;4.30;99.90;;;;;;5011766;28;20449;-65
2021/11/08 04:24:37;;;;;;;11.37;7.43;;;4.30;99.90;;;;;;5011732;28;20441;-65
2021/11/08 04:27:03;;;;;;;14.37;7.47;;;4.20;99.90;;;;;;5011280;28;20182;-64
2021/11/08 04:29:30;;;;;;;11.07;8.10;;;4.10;99.90;;;;;;5011433;28;20237;-66
2021/11/08 04:31:57;;;;;;;10.50;7.57;;;4.10;99.90;;;;;;5011536;28;20210;-65
2021/11/08 04:34:26;;;;;;;12.47;6.63;;;4.20;99.90;;;;;;5012100;28;20418;-65
2021/11/08 04:45:12;;;;;;;10.50;8.37;;;4.10;99.90;;;;;;5012344;28;20417;-66
2021/11/08 04:47:57;;;;;;;8.83;7.10;;;4.10;99.90;;;;;;5011664;28;20784;-65
2021/11/08 04:50:30;;;;;;;10.10;6.23;;;4.00;99.90;;;;;;4999114;28;20429;-66
2021/11/08 04:53:16;;;;;;;16.73;7.43;;;4.00;99.90;;;;;;4992491;28;20466;-65
2021/11/08 05:30:37;;;;;;;7.77;5.80;;;3.90;99.90;;;;;;5013946;28;20469;-65
2021/11/08 05:33:03;;;;;;;14.17;6.17;;;3.90;99.90;;;;;;5014463;28;20436;-65
2021/11/08 05:35:30;;;;;;;8.87;6.40;;;3.80;99.90;;;;;;5014905;28;20620;-66
2021/11/08 05:37:56;;;;;;;8.23;6.27;;;3.80;99.90;;;;;;5013676;28;20931;-65
2021/11/08 05:40:32;;;;;;;13.13;5.50;;;3.80;99.90;;;;;;5013990;28;20430;-65
2021/11/08 05:43:00;;;;;;;11.80;6.37;;;3.80;99.90;;;;;;5014380;28;20484;-65
2021/11/08 05:45:31;;;;;;;8.07;6.30;;;3.80;99.90;;;;;;5014232;28;20818;-66
2021/11/08 05:47:57;;;;;;;11.87;7.67;;;3.80;99.90;;;;;;5000438;28;20434;-66
2021/11/08 05:50:24;;;;;;;10.27;7.97;;;3.70;99.90;;;;;;5010022;28;20442;-66
2021/11/08 05:52:52;;;;;;;13.70;8.00;;;3.70;99.90;;;;;;5005325;28;20772;-66
2021/11/08 05:55:26;;;;;;;10.73;6.93;;;3.80;99.90;;;;;;5014157;28;20429;-66
2021/11/08 05:58:46;;;;;;;11.20;7.30;;;3.90;99.90;;;;;;5000671;28;20437;-65
2021/11/08 06:50:01;;;;;;;12.97;7.60;;;3.90;99.90;;;;;;5010990;28;20545;-65
2021/11/08 06:52:27;;;;;;;13.17;8.00;;;3.90;99.90;;;;;;5002957;28;20473;-65
2021/11/08 06:54:54;;;;;;;9.03;8.10;;;4.00;99.90;;;;;;5012380;28;20444;-65
2021/11/08 06:57:20;;;;;;;14.40;7.83;;;4.00;99.90;;;;;;4998970;28;20442;-66
2021/11/08 06:59:49;;;;;;;9.90;8.40;;;4.20;99.90;;;;;;4993730;28;20912;-66
2021/11/08 07:02:17;;;;;;;13.30;8.47;;;4.30;99.90;;;;;;4993749;28;20688;-65
2021/11/08 07:04:43;;;;;;;8.87;7.93;;;4.40;99.90;;;;;;4993846;28;20435;-65
2021/11/08 07:07:09;;;;;;;9.00;7.50;;;4.60;99.90;;;;;;4993716;28;20517;-64
2021/11/08 07:09:36;;;;;;;16.23;10.47;;;4.80;99.90;;;;;;4993558;28;20489;-65
2021/11/08 07:12:02;;;;;;;15.80;10.30;;;5.00;99.90;;;;;;4993583;28;20842;-66
2021/11/08 07:14:28;;;;;;;16.30;8.60;;;5.40;99.90;;;;;;5008646;28;20438;-66
2021/11/08 07:16:53;;;;;;;16.57;10.53;;;5.80;99.90;;;;;;5003725;28;20429;-66
2021/11/08 07:19:19;;;;;;;19.00;12.87;;;6.00;99.90;;;;;;5009648;28;20186;-66
2021/11/08 07:21:46;;;;;;;24.93;17.30;;;6.20;99.90;;;;;;5007476;28;20625;-64
2021/11/08 07:24:12;;;;;;;11.77;9.30;;;6.60;99.90;;;;;;4989658;28;20197;-65
2021/11/08 07:26:38;;;;;;;11.00;7.47;;;7.00;99.90;;;;;;5018935;28;20425;-65
2021/11/08 07:29:06;;;;;;;13.47;7.50;;;7.40;99.90;;;;;;5016356;28;20519;-65
2021/11/08 07:31:32;;;;;;;9.60;7.03;;;7.90;99.90;;;;;;5015665;28;20567;-64
2021/11/08 07:33:57;;;;;;;7.40;6.70;;;8.40;99.90;;;;;;5012796;28;20947;-66
2021/11/08 07:36:24;;;;;;;13.30;7.77;;;8.70;99.90;;;;;;5019536;28;20482;-66
2021/11/08 07:38:50;;;;;;;9.03;7.10;;;9.10;99.90;;;;;;5016966;28;20163;-65
2021/11/08 07:41:16;;;;;;;14.20;8.20;;;9.50;99.90;;;;;;5012063;28;20454;-65
2021/11/08 07:43:46;;;;;;;14.53;11.70;;;10.00;99.90;;;;;;5008965;28;20186;-66
2021/11/08 07:46:12;;;;;;;12.87;10.90;;;10.50;99.90;;;;;;5019277;28;20588;-66
2021/11/08 07:48:40;;;;;;;16.73;14.00;;;11.10;99.90;;;;;;5022443;28;20532;-66
2021/11/08 07:51:07;;;;;;;13.30;10.67;;;11.40;99.90;;;;;;5026261;28;20907;-63
2021/11/08 07:53:33;;;;;;;14.37;10.17;;;11.80;99.90;;;;;;5009511;28;20421;-65
2021/11/08 07:55:58;;;;;;;14.80;10.03;;;12.40;99.90;;;;;;5015585;28;20425;-66
2021/11/08 07:58:24;;;;;;;10.87;9.70;;;13.10;99.90;;;;;;5014317;28;20187;-64
2021/11/08 08:00:49;;;;;;;13.30;10.80;;;13.40;99.90;;;;;;5018691;28;20200;-66
2021/11/08 08:03:19;;;;;;;13.07;9.60;;;14.10;99.90;;;;;;5013816;28;20210;-66
2021/11/08 08:05:44;;;;;;;15.40;9.17;;;14.50;99.90;;;;;;5020278;28;20715;-66
2021/11/08 08:08:10;;;;;;;17.17;8.97;;;14.90;99.90;;;;;;5010375;28;20425;-66
2021/11/08 08:10:36;;;;;;;12.70;9.93;;;15.30;99.90;;;;;;5017918;28;20182;-66
2021/11/08 08:13:02;;;;;;;17.47;10.70;;;15.80;99.90;;;;;;5016125;28;20571;-66
2021/11/08 08:15:28;;;;;;;11.97;10.10;;;16.50;99.90;;;;;;5020497;28;20171;-67
2021/11/08 08:17:56;;;;;;;14.73;8.60;;;16.80;99.90;;;;;;5022111;28;20456;-65
2021/11/08 08:20:23;;;;;;;12.80;9.00;;;17.20;99.90;;;;;;5020247;28;20924;-66
2021/11/08 08:22:49;;;;;;;9.13;8.23;;;17.80;99.90;;;;;;5012610;28;20456;-67
2021/11/08 08:25:15;;;;;;;13.20;8.00;;;18.40;98.50;;;;;;5020697;28;20424;-66
2021/11/08 08:27:41;;;;;;;11.10;8.80;;;18.90;96.60;;;;;;5011656;28;20618;-66
2021/11/08 08:30:07;;;;;;;7.53;6.83;;;19.50;95.20;;;;;;5015815;28;20210;-66
2021/11/08 08:32:33;;;;;;;10.67;6.97;;;19.80;93.50;;;;;;5015738;28;20692;-67
2021/11/08 08:34:59;;;;;;;11.23;6.83;;;20.10;92.50;;;;;;5022046;28;20428;-66
2021/11/08 08:37:24;;;;;;;9.47;7.07;;;20.60;91.30;;;;;;5028115;28;20181;-66
2021/11/08 08:39:51;;;;;;;8.13;7.43;;;21.00;90.30;;;;;;5023577;28;20186;-67
2021/11/08 08:42:18;;;;;;;7.97;7.00;;;20.90;88.60;;;;;;5010572;28;20450;-67
2021/11/08 08:44:45;;;;;;;10.83;7.70;;;21.20;88.20;;;;;;5027568;28;20424;-64
2021/11/08 08:47:11;;;;;;;10.93;7.80;;;21.20;88.20;;;;;;5029694;28;20439;-66
2021/11/08 08:49:37;;;;;;;8.10;7.07;;;21.20;85.50;;;;;;5021556;28;20425;-67
2021/11/08 08:52:03;;;;;;;8.80;8.00;;;21.50;83.00;;;;;;5019283;28;20464;-66
2021/11/08 08:54:28;;;;;;;7.90;7.20;;;21.80;82.80;;;;;;5018650;28;20570;-65
2021/11/08 08:56:54;;;;;;;18.87;16.87;;;21.60;82.90;;;;;;5023614;28;20170;-66
2021/11/08 08:59:21;;;;;;;9.80;7.50;;;22.10;80.70;;;;;;5017710;28;20163;-67
2021/11/08 09:01:47;;;;;;;9.50;6.53;;;22.40;79.80;;;;;;5007706;28;20195;-64
2021/11/08 09:04:13;;;;;;;9.17;6.23;;;23.00;76.00;;;;;;5010273;28;20488;-63
2021/11/08 09:06:39;;;;;;;12.70;6.13;;;23.00;75.10;;;;;;5010046;28;21105;-67
2021/11/08 09:09:05;;;;;;;9.93;5.70;;;22.80;72.80;;;;;;5009773;28;20551;-67
2021/11/08 09:11:31;;;;;;;9.20;4.77;;;22.90;72.40;;;;;;5009149;28;20461;-64
2021/11/08 09:14:00;;;;;;;16.00;5.67;;;22.40;71.60;;;;;;5008743;28;21797;-66
2021/11/08 09:16:30;;;;;;;8.30;5.50;;;21.90;72.40;;;;;;5010435;28;20550;-68
2021/11/08 09:18:55;;;;;;;8.93;4.73;;;21.50;73.80;;;;;;5010201;28;20531;-67
2021/11/08 09:21:24;;;;;;;14.07;5.20;;;21.40;74.40;;;;;;5010081;28;20470;-66
2021/11/08 09:23:51;;;;;;;10.70;5.30;;;20.20;75.20;;;;;;5007267;28;20167;-67
2021/11/08 09:26:17;;;;;;;9.20;6.10;;;18.60;79.10;;;;;;5010126;28;20945;-67
2021/11/08 09:28:44;;;;;;;9.97;5.53;;;17.30;84.00;;;;;;5009726;28;20942;-64
2021/11/08 09:31:10;;;;;;;9.33;3.90;;;18.50;83.30;;;;;;5009840;28;20552;-66
2021/11/08 09:33:36;;;;;;;8.63;4.67;;;18.60;80.60;;;;;;5020516;28;20554;-66
2021/11/08 09:36:06;;;;;;;11.30;5.50;;;17.60;83.50;;;;;;5029736;28;20182;-65
2021/11/08 09:38:33;;;;;;;13.53;5.00;;;16.40;87.90;;;;;;5029618;28;21013;-67
2021/11/08 09:41:01;;;;;;;8.03;5.07;;;16.90;88.90;;;;;;5029539;28;20452;-65
2021/11/08 09:43:28;;;;;;;12.00;7.13;;;18.40;85.30;;;;;;5010421;28;20429;-65
2021/11/08 09:45:55;;;;;;;13.63;6.97;;;18.50;83.00;;;;;;5009777;28;20422;-66
2021/11/08 09:48:21;;;;;;;13.90;6.30;;;18.70;82.90;;;;;;5009414;28;20430;-66
2021/11/08 09:50:48;;;;;;;8.80;5.13;;;19.20;83.20;;;;;;5011591;28;20493;-67
2021/11/08 09:53:15;;;;;;;11.10;5.60;;;19.90;79.80;;;;;;5026650;28;21143;-66
2021/11/08 09:55:43;;;;;;;15.33;8.27;;;20.70;78.80;;;;;;5029235;28;20424;-67
2021/11/08 09:58:09;;;;;;;9.10;5.07;;;22.50;74.60;;;;;;5028996;28;20413;-64
2021/11/08 10:00:37;;;;;;;8.67;5.07;;;23.50;68.00;;;;;;5029451;28;20781;-63
2021/11/08 10:03:13;;;;;;;12.67;5.63;;;24.40;65.50;;;;;;5025999;28;20691;-63
2021/11/08 10:05:42;;;;;;;10.97;6.33;;;24.50;64.70;;;;;;5029213;28;21060;-63
2021/11/08 10:08:09;;;;;;;13.20;7.73;;;24.70;62.40;;;;;;5029493;28;21006;-63
2021/11/08 10:10:35;;;;;;;10.70;6.70;;;25.20;62.10;;;;;;5010938;28;20425;-63
2021/11/08 10:13:08;;;;;;;10.53;6.00;;;26.40;59.90;;;;;;5006198;28;20438;-64
2021/11/08 10:15:35;;;;;;;8.77;4.00;;;26.60;58.30;;;;;;5009103;28;20822;-64
2021/11/08 10:18:04;;;;;;;6.43;3.83;;;26.00;57.20;;;;;;5008999;28;20576;-64
2021/11/08 10:21:04;;;;;;;10.53;4.80;;;24.70;57.50;;;;;;5009282;28;20453;-61
2021/11/08 10:23:30;;;;;;;8.53;5.30;;;21.30;63.30;;;;;;5005816;28;20517;-63
2021/11/08 10:25:55;;;;;;;9.10;6.40;;;19.40;68.90;;;;;;5009459;28;20540;-63
2021/11/08 10:28:27;;;;;;;7.77;4.73;;;18.10;73.80;;;;;;5009112;28;20547;-65
2021/11/08 10:31:00;;;;;;;10.03;5.67;;;17.60;76.80;;;;;;5007696;28;20284;-66
2021/11/08 10:33:31;;;;;;;12.20;5.20;;;17.20;79.30;;;;;;5005795;28;20445;-66
2021/11/08 10:36:02;;;;;;;12.97;7.47;;;17.30;79.40;;;;;;5009354;28;20438;-67
2021/11/08 10:38:31;;;;;;;12.07;6.60;;;17.70;80.80;;;;;;5030326;23;20529;-64
2021/11/08 10:41:04;;;;;;;10.70;5.90;;;19.10;78.50;;;;;;5015652;28;20424;-63
2021/11/08 10:43:36;;;;;;;13.00;6.70;;;21.40;72.10;;;;;;5005543;28;20459;-64
2021/11/08 10:46:08;;;;;;;11.40;4.97;;;23.40;65.50;;;;;;5017304;28;20405;-64
2021/11/08 10:48:40;;;;;;;7.43;5.93;;;23.70;61.20;;;;;;5026044;28;20829;-63
2021/11/08 10:51:09;;;;;;;8.40;4.70;;;24.40;61.00;;;;;;5010496;28;20453;-64
2021/11/08 10:53:49;;;;;;;10.03;7.93;;;25.80;58.70;;;;;;5021406;28;20433;-65
2021/11/08 10:56:20;;;;;;;8.63;6.33;;;27.10;55.70;;;;;;5018502;28;20432;-65
2021/11/08 10:58:47;;;;;;;11.17;7.20;;;26.20;54.50;;;;;;5007276;28;20444;-65
2021/11/08 11:01:22;;;;;;;13.53;8.87;;;25.10;55.20;;;;;;5008419;28;20520;-65
2021/11/08 11:03:53;;;;;;;13.20;7.60;;;23.10;57.60;;;;;;5004642;28;20430;-63
2021/11/08 11:06:21;;;;;;;13.67;7.43;;;21.20;61.30;;;;;;5007931;28;20829;-68
2021/11/08 11:08:57;;;;;;;15.13;8.00;;;19.30;66.00;;;;;;5006937;28;20450;-65
2021/11/08 11:11:24;;;;;;;22.03;8.03;;;17.40;72.30;;;;;;5007978;28;20510;-65
2021/11/08 11:13:52;;;;;;;15.23;8.33;;;15.90;78.00;;;;;;5004933;28;20432;-65
2021/11/08 11:16:31;;;;;;;15.13;8.87;;;15.10;82.50;;;;;;5001229;28;20434;-63
2021/11/08 11:19:10;;;;;;;12.93;7.30;;;14.40;87.70;;;;;;5005539;28;20461;-64
2021/11/08 11:21:38;;;;;;;17.30;7.00;;;14.10;91.00;;;;;;5007841;28;20455;-63
2021/11/08 11:24:06;;;;;;;9.00;6.53;;;14.30;91.40;;;;;;5023724;28;20474;-63
2021/11/08 11:26:46;;;;;;;14.53;6.60;;;14.30;91.00;;;;;;5024173;28;20433;-62
2021/11/08 11:29:12;;;;;;;18.87;6.87;;;14.20;91.50;;;;;;5024098;28;20439;-64
2021/11/08 11:31:37;;;;;;;10.10;5.90;;;14.70;91.80;;;;;;5022444;28;20863;-63
2021/11/08 11:34:15;;;;;;;10.30;6.07;;;17.30;85.60;;;;;;5017005;28;20533;-65
2021/11/08 11:36:42;;;;;;;10.70;6.00;;;19.30;77.90;;;;;;5020224;28;20178;-64
2021/11/08 11:39:14;;;;;;;9.17;5.23;;;18.70;76.30;;;;;;5023706;28;20432;-65
2021/11/08 11:41:44;;;;;;;9.47;5.13;;;17.40;79.40;;;;;;5004439;28;20564;-64
2021/11/08 11:44:20;;;;;;;8.47;4.97;;;16.90;81.10;;;;;;5004299;28;20420;-65
2021/11/08 11:46:56;;;;;;;8.87;4.87;;;19.20;76.70;;;;;;5004652;28;20420;-64
2021/11/08 11:49:23;;;;;;;7.37;5.67;;;22.90;66.80;;;;;;5004348;28;20919;-64
2021/11/08 11:51:51;;;;;;;7.57;5.17;;;25.10;59.00;;;;;;5001485;28;20461;-64
2021/11/08 11:54:20;;;;;;;8.57;5.30;;;26.70;55.30;;;;;;5014955;28;20421;-65
2021/11/08 11:56:48;;;;;;;13.33;5.70;;;28.00;52.70;;;;;;5023957;28;20421;-64
2021/11/08 11:59:15;;;;;;;7.97;5.87;;;28.80;49.80;;;;;;5022090;28;20467;-64
2021/11/08 12:01:42;;;;;;;11.40;6.73;;;28.70;48.60;;;;;;5021124;28;20925;-65
2021/11/08 12:04:08;;;;;;;9.10;5.80;;;28.90;48.70;;;;;;5023138;28;20435;-65
2021/11/08 12:06:39;;;;;;;8.33;6.07;;;28.90;47.40;;;;;;5023878;28;21061;-63
2021/11/08 12:09:08;;;;;;;8.47;5.20;;;27.40;48.10;;;;;;5023730;28;20982;-64
2021/11/08 12:11:42;;;;;;;7.27;6.37;;;27.70;48.80;;;;;;5007661;28;20457;-65
2021/11/08 12:14:15;;;;;;;12.73;5.83;;;28.80;46.80;;;;;;5003539;28;20436;-64
2021/11/08 12:16:52;;;;;;;12.63;7.27;;;28.50;46.50;;;;;;5003941;28;20923;-64
2021/11/08 12:19:19;;;;;;;13.70;10.60;;;29.20;45.90;;;;;;5003781;28;20433;-64
2021/11/08 12:21:45;;;;;;;12.33;7.00;;;28.40;46.50;;;;;;5000958;28;20487;-66
2021/11/08 12:24:23;;;;;;;8.80;5.87;;;29.10;45.40;;;;;;5003461;28;20417;-65
2021/11/08 12:27:01;;;;;;;9.30;6.13;;;29.50;43.90;;;;;;5003527;28;20698;-64
2021/11/08 12:29:27;;;;;;;8.17;5.20;;;30.00;43.30;;;;;;5003745;28;20445;-63
2021/11/08 12:32:19;;;;;;;7.73;5.60;;;29.60;43.80;;;;;;5000998;28;20466;-64
2021/11/08 12:34:47;;;;;;;12.83;5.13;;;30.30;42.60;;;;;;5001527;28;20690;-64
2021/11/08 12:37:15;;;;;;;6.60;4.27;;;30.30;42.10;;;;;;5003664;28;20469;-65
2021/11/08 12:39:43;;;;;;;9.97;4.90;;;30.30;41.50;;;;;;5003945;28;20521;-64
2021/11/08 12:42:12;;;;;;;8.40;4.30;;;30.00;41.30;;;;;;5001276;28;20793;-65
2021/11/08 12:44:45;;;;;;;9.27;5.70;;;29.60;41.90;;;;;;5009109;28;20424;-64
2021/11/08 12:47:12;;;;;;;9.50;4.80;;;29.70;41.70;;;;;;5023134;28;20972;-63
2021/11/08 12:49:40;;;;;;;9.80;5.67;;;30.20;40.70;;;;;;5023144;28;20424;-64
2021/11/08 12:52:06;;;;;;;8.70;5.40;;;30.30;40.10;;;;;;5020437;28;20453;-65
2021/11/08 12:54:44;;;;;;;9.70;5.20;;;29.00;41.10;;;;;;5022977;28;21111;-64
2021/11/08 12:57:11;;;;;;;17.13;7.93;;;28.70;41.20;;;;;;5023147;28;20210;-64
2021/11/08 13:00:21;;;;;;;9.47;5.17;;;29.30;42.00;;;;;;5023111;28;20485;-65
2021/11/08 13:02:54;;;;;;;6.93;4.47;;;28.30;41.40;;;;;;5015337;28;20521;-64
2021/11/08 13:05:32;;;;;;;8.00;4.67;;;28.60;41.00;;;;;;5022691;28;20504;-65
2021/11/08 13:07:59;;;;;;;9.80;5.20;;;28.30;41.40;;;;;;5023021;28;20451;-66
2021/11/08 13:10:33;;;;;;;7.07;4.03;;;28.10;41.30;;;;;;5018508;28;20643;-64
2021/11/08 13:13:00;;;;;;;8.50;4.80;;;28.80;40.70;;;;;;5000910;28;20437;-64
2021/11/08 13:15:29;;;;;;;10.30;5.10;;;28.40;40.70;;;;;;5004864;28;21192;-65
2021/11/08 13:17:58;;;;;;;6.57;4.63;;;28.00;41.60;;;;;;5005220;28;20553;-64
2021/11/08 13:20:30;;;;;;;6.30;4.20;;;28.60;41.10;;;;;;5006337;28;20434;-64
2021/11/08 13:23:00;;;;;;;11.33;5.13;;;30.00;39.60;;;;;;5008685;28;20477;-64
2021/11/08 13:25:33;;;;;;;7.00;4.13;;;29.90;38.90;;;;;;5013035;28;20449;-65
2021/11/08 13:28:05;;;;;;;6.33;4.37;;;30.00;38.90;;;;;;5015018;28;20521;-64
2021/11/08 13:30:38;;;;;;;9.43;3.87;;;30.60;38.70;;;;;;5015314;28;20426;-65
2021/11/08 13:33:06;;;;;;;8.73;3.77;;;30.00;37.80;;;;;;5012337;28;20476;-64
2021/11/08 13:35:32;;;;;;;7.10;4.60;;;30.30;38.10;;;;;;5009576;28;20418;-65
2021/11/08 13:38:07;;;;;;;9.20;4.17;;;31.10;37.60;;;;;;5009208;28;20457;-66
2021/11/08 13:40:35;;;;;;;5.30;3.57;;;30.10;37.20;;;;;;5009951;28;20801;-64
2021/11/08 13:43:20;;;;;;;7.87;4.10;;;28.30;38.70;;;;;;5007056;28;20460;-64
2021/11/08 13:45:55;;;;;;;7.83;4.10;;;26.10;40.20;;;;;;5009736;28;20450;-64
2021/11/08 13:48:35;;;;;;;7.63;3.60;;;23.90;42.20;;;;;;5009223;28;20990;-64
2021/11/08 13:51:07;;;;;;;6.60;3.50;;;22.10;44.60;;;;;;5010332;28;20449;-64
2021/11/08 13:53:38;;;;;;;7.33;3.73;;;20.60;46.20;;;;;;5025896;28;20429;-65
2021/11/08 13:56:10;;;;;;;8.93;4.00;;;19.10;48.80;;;;;;5025865;28;20509;-64
2021/11/08 13:58:45;;;;;;;5.10;3.10;;;17.80;51.80;;;;;;5028886;28;20440;-66
2021/11/08 14:01:11;;;;;;;8.77;3.70;;;16.70;53.20;;;;;;5026291;28;20918;-65
2021/11/08 14:03:42;;;;;;;10.43;4.63;;;15.60;55.70;;;;;;5007492;28;20421;-63
2021/11/08 14:06:09;;;;;;;9.07;4.00;;;14.90;57.90;;;;;;5009718;28;20903;-64
2021/11/08 14:08:48;;;;;;;8.53;4.10;;;14.50;59.50;;;;;;5008910;28;20552;-64
2021/11/08 14:11:24;;;;;;;6.63;4.40;;;14.40;60.90;;;;;;5009158;28;20842;-65
2021/11/08 14:13:54;;;;;;;11.30;4.30;;;14.20;62.40;;;;;;5006079;28;20496;-64
2021/11/08 14:16:20;;;;;;;7.83;3.97;;;14.00;63.70;;;;;;5009116;28;20780;-63
2021/11/08 14:18:55;;;;;;;10.90;4.30;;;13.80;65.70;;;;;;5007757;28;20620;-64
2021/11/08 14:21:22;;;;;;;7.27;4.00;;;13.50;68.20;;;;;;5009173;28;20190;-63
2021/11/08 14:24:00;;;;;;;9.80;4.30;;;13.30;70.00;;;;;;5005942;28;20414;-63
2021/11/08 14:26:27;;;;;;;8.03;4.27;;;13.40;70.10;;;;;;5008933;28;20491;-64